Tiempo atmosférico en la estación meteorológica de Almería Aeropuerto, Almería (21 m.)



Fecha
DESCASC
Temp. máxima en grados centígrados (hora)
DESCASC
Temp. mínima en grados centígrados (hora)
DESCASC
Temp. media en grados centígrados
DESCASC
Racha de viento máxima en m/sg (hora)
DESCASC
Velocidad máxima media en intervalos de 10 minutos(hora)
DESCASC
Precipitaciones diarias en mm
DESCASC
Precipitaciones de 00:00 a 06:00 en mm
DESCASC
Precipitaciones de 06:00 a 12:00 en mm
DESCASC
Precipitaciones de 12:00 a 18:00 en mm
DESCASC
Precipitaciones de 18:00 a 24:00 en mm
DESCASC
13-10-2019 25.9 (16:00) 18.9 (07:00) 22.4 6.67 (22:10) 4.72 (13:20) 0 0 0 0 0
12-10-2019 30.2 (15:40) 19.1 (07:20) 24.7 10.83 (19:20) 7.78 (19:20) 0 0 0 0 0
11-10-2019 30 (14:20) 20.7 (05:20) 25.4 11.39 (14:10) 8.33 (14:10) 0 0 0 0 0
10-10-2019 29.4 (15:30) 19.8 (00:00) 24.6 13.33 (15:30) 10 (19:40) 0 0 0 0 0
09-10-2019 26.4 (11:50) 18.1 (00:00) 22.3 6.11 (09:10) 4.44 (13:20) 0 0 0 0 0
08-10-2019 28.8 (15:40) 20.3 (00:00) 24.5 11.39 (13:40) 6.67 (13:30) 0 0 0 0 0
07-10-2019 25.3 (16:20) 16.9 (00:00) 21.1 11.39 (22:20) 8.61 (22:20) 0 0 0 0 0
06-10-2019 24.4 (11:50) 16.4 (00:00) 20.4 4.72 (12:30) 3.61 (12:30) 0 0 0 0 0
05-10-2019 24.5 (14:30) 16.7 (00:00) 20.6 5 (13:10) 3.33 (13:10) 0 0 0 0 0
04-10-2019 25.1 (16:10) 17.6 (00:00) 21.4 5.83 (07:50) 3.89 (08:00) 0 0 0 0 0
03-10-2019 27.4 (11:20) 19.6 (00:00) 23.5 8.33 (08:10) 6.11 (09:40) 0 0 0 0 0
02-10-2019 31.1 (11:50) 19.9 (00:00) 25.5 16.39 (00:10) 10.28 (00:10) 0 0 0 0 0
01-10-2019 29.5 (23:59) 18.2 (00:00) 23.9 13.89 (23:59) 8.89 (23:50) 0 0 0 0 0
30-09-2019 25.8 (14:10) 19.4 (00:00) 22.6 6.11 (15:10) 4.44 (15:10) 0 0 0 0 0
29-09-2019 26.8 (14:10) 19.8 (00:00) 23.3 6.11 (12:20) 4.72 (13:00) 0 0 0 0 0
28-09-2019 26.7 (15:50) 19.6 (00:00) 23.2 6.11 (17:50) 4.72 (17:50) 0 0 0 0 0
27-09-2019 26 (15:00) 19.7 (00:00) 22.9 5.83 (08:50) 4.17 (16:50) 0 0 0 0 0
26-09-2019 30.9 (13:40) 20.9 (00:00) 25.9 7.78 (12:10) 5 (14:40) 0 0 0 0 0
25-09-2019 26.3 (16:00) 18.4 (00:00) 22.3 5 (13:20) 3.61 (14:10) 0 0 0 0 0
24-09-2019 27.1 (14:00) 19.9 (00:00) 23.5 8.33 (14:40) 6.39 (15:10) 0 0 0 0 0
23-09-2019 27.3 (11:20) 20.6 (00:00) 23.9 7.22 (10:50) 5 (14:50) 0 0 0 0 0
22-09-2019 28 (11:30) 21.8 (00:00) 24.9 15 (17:00) 11.11 (17:10) 0 0 0 0 0
21-09-2019 27.7 (13:10) 22.3 (00:00) 25 8.89 (18:10) 6.11 (18:10) 0 0 0 0 0
20-09-2019 29.6 (16:00) 22.7 (00:00) 26.2 13.33 (20:40) 10 (19:20) 0 0 0 0 0
19-09-2019 26.9 (14:30) 20.5 (00:00) 23.7 6.11 (12:50) 4.72 (12:50) 0 0 0 0 0
18-09-2019 28.5 (15:40) 21.3 (00:00) 24.9 9.17 (16:10) 6.94 (14:30) 0 0 0 0 0
17-09-2019 30.3 (16:20) 22.5 (00:00) 26.4 9.72 (09:20) 6.67 (10:00) 0 0 0 0 0
16-09-2019 28 (14:50) 22.3 (00:00) 25.1 7.22 (16:40) 5 (12:20) 0 0 0 0 0

Gráficas

Temp. máximas Temp. mínimas Temp. medias Precipitaciones Rachas de viento máximas Velocidades máximas media en intervalos de 10 minutos

Datos horarios

Fecha y hora oficial Temperatura (ºC) Velocidad del viento (km/h) Dirección del viento Racha (km/h) Dirección de racha Precipitación (mm) Presión (hPa) Tendencia (hPa) Humedad (%)
2019-10-15 23:00:00 17.4 7 Noroeste 13 Norte 0 1018.3 0.9 59
2019-10-15 22:00:00 17.5 7 Norte 15 Norte 0 1018 1 65
2019-10-15 21:00:00 18.4 7 Norte 8 Norte 0 1017.8 1.3 64
2019-10-15 20:00:00 19.2 3 Sudeste 9 Sur 0 1017.4 1.1 57
2019-10-15 19:00:00 20.8 8 Sur 15 Sur 0 1017 0.3 56
2019-10-15 18:00:00 22 8 Sudeste 15 Sur 0 1016.5 -0.6 46
2019-10-15 17:00:00 22 11 Sur 22 Sudoeste 0 1016.3 -1.5 49
2019-10-15 16:00:00 22.6 15 Sudoeste 22 Sudoeste 0 1016.7 -1.7 51
2019-10-15 15:00:00 22.4 15 Sudoeste 22 Sudoeste 0 1017.1 -1.3 51
2019-10-15 14:00:00 22.6 13 Sudoeste 22 Sudoeste 0 1017.8 -0.2 49
2019-10-15 13:00:00 22.5 12 Sur 18 Sur 0 1018.4 1.3 50
2019-10-15 12:00:00 22.4 11 Sur 18 Sur 0 1018.4 2 47
2019-10-15 11:00:00 22 5 Sudeste 26 Norte 0 1018 2.2 39
2019-10-15 10:00:00 20.2 12 Noroeste 26 Noroeste 0 1017.1 1.6 36
2019-10-15 09:00:00 18.5 14 Noroeste 28 Noroeste 0 1016.4 1.3 42
2019-10-15 08:00:00 18.4 15 Noroeste 26 Noroeste 0 1015.8 1.2 45
2019-10-15 07:00:00 18.7 13 Oeste 24 Oeste 0 1015.5 1.2 48
2019-10-15 06:00:00 18.3 9 Oeste 18 Oeste 0 1015.1 1 64
2019-10-15 05:00:00 18.4 10 Oeste 17 Sudoeste 0 1014.6 0.6 73
2019-10-15 04:00:00 19.5 13 Oeste 30 Oeste 0 1014.3 0.5 71
2019-10-15 03:00:00 20.4 27 Sudoeste 39 Oeste 0 1014.1 0.7 69
2019-10-15 02:00:00 20.7 18 Sudoeste 33 Oeste 0 1014 0.8 55
2019-10-15 01:00:00 21.3 23 Sudoeste 35 Sudoeste 0 1013.8 1.6 60
2019-10-15 00:00:00 21 18 Sudoeste 41 Oeste 0 1013.4 1.6 76
2019-10-14 23:00:00 21.5 30 Oeste 61 Sudoeste 0 1013.2 2.2 66
2019-10-14 22:00:00 21.8 45 Sudoeste 71 Sudoeste 0 1012.2 1 71
2019-10-14 21:00:00 21.9 42 Sudoeste 67 Sudoeste 0 1011.8 0.9 75
2019-10-14 20:00:00 21.8 51 Sudoeste 74 Sudoeste 0 1011 0.7 79
2019-10-14 19:00:00 22.8 41 Sudoeste 71 Sudoeste 0 1011.2 1.6 71
2019-10-14 18:00:00 24.2 51 Sudoeste 72 Oeste 0 1010.9 0.7 62
2019-10-14 17:00:00 25.7 54 Sudoeste 80 Sudoeste 0 1010.3 -0.7 53
2019-10-14 16:00:00 25.4 54 Sudoeste 76 Sudoeste 0 1009.6 -1.9 63
2019-10-14 15:00:00 25.6 54 Sudoeste 71 Sudoeste 0 1010.2 -1.4 62
2019-10-14 14:00:00 25.6 55 Sudoeste 68 Sudoeste 0 1011 -0.7 59
2019-10-14 13:00:00 25.6 35 Sudoeste 52 Sudoeste 0 1011.5 -0.2 66
2019-10-14 12:00:00 25.3 21 Sudoeste 32 Sudoeste 0 1011.6 0.1 65
2019-10-14 11:00:00 24.1 20 Sudoeste 35 Sudoeste 0 1011.7 0.9 77
2019-10-14 10:00:00 23.5 21 Sudoeste 33 Sudoeste 0 1011.7 1.1 75
2019-10-14 09:00:00 22.3 6 Sudoeste 28 Sudoeste 0 1011.5 1.3 80
2019-10-14 08:00:00 22.1 17 Sudoeste 28 Oeste 0 1010.8 1.2 77
2019-10-14 07:00:00 21.5 12 Oeste 26 Sudoeste 0 1010.6 0.8 82
2019-10-14 06:00:00 21.7 9 Sur 24 Oeste 0 1010.2 -0.7 85
2019-10-14 05:00:00 22.6 15 Norte 39 Noroeste 0 1009.6 -2.2 58
2019-10-14 04:00:00 22.3 24 Noroeste 35 Norte 0 1009.8 -2.7 67
2019-10-14 03:00:00 22.2 16 Noroeste 26 Norte 0 1010.9 -2.4 71
2019-10-14 02:00:00 21.3 10 Nordeste 18 Norte 0 1011.8 -1.3 82
2019-10-14 01:00:00 21.7 9 Norte 22 Norte 0 1012.5 0.3 80
2019-10-14 00:00:00 21.7 9 Nordeste 17 Este 0 1013.3 1.2 87
2019-10-13 23:00:00 22.2 11 Nordeste 24 Este 0 1013.1 0.9 85
2019-10-13 22:00:00 22.5 15 Nordeste 22 Nordeste 0 1012.2 0 84
2019-10-13 21:00:00 22.9 12 Nordeste 17 Nordeste 0 1012.1 -0.2 78
2019-10-13 20:00:00 23.1 4 Oeste 13 Sudoeste 0 1012.2 -0.6 83
2019-10-13 19:00:00 24.4 9 Sudoeste 13 Sudoeste 0 1012.2 -1.1 75
2019-10-13 18:00:00 24.9 9 Sur 15 Sur 0 1012.3 -1.3 75
2019-10-13 17:00:00 25.4 7 Sur 15 Sur 0 1012.8 -1.5 73
2019-10-13 16:00:00 25.7 9 Sur 15 Sur 0 1013.3 -1.4 71
2019-10-13 15:00:00 25.5 12 Sur 18 Sudoeste 0 1013.6 -1.5 73
2019-10-13 14:00:00 25.3 12 Sudoeste 22 Sur 0 1014.3 -0.6 74
2019-10-13 13:00:00 25.1 12 Sur 15 Sur 0 1014.7 -0.1 74
2019-10-13 12:00:00 25.5 8 Sur 11 Sur 0 1015.1 0.8 61
2019-10-13 11:00:00 24.2 6 Sur 11 Sudeste 0 1014.9 1.2 65
2019-10-13 10:00:00 21.8 7 Noroeste 21 Noroeste 0 1014.8 1.6 72
2019-10-13 09:00:00 19.6 10 Noroeste 15 Noroeste 0 1014.3 1.3 78
2019-10-13 08:00:00 19.7 3 Nordeste 18 Norte 0 1013.7 0.3 84
2019-10-13 07:00:00 19 8 Nordeste 17 Noroeste 0 1013.2 -0.2 87
2019-10-13 06:00:00 20.3 8 Noroeste 15 Noroeste 0 1013 -0.8 80
2019-10-13 05:00:00 20.1 6 Norte 9 Norte 0 1013.4 -0.8 91
2019-10-13 04:00:00 20.3 4 Nordeste 9 Nordeste 0 1013.4 -1 90
2019-10-13 03:00:00 20.6 2 Norte 11 Norte 0 1013.8 -0.7 89
2019-10-13 02:00:00 20.9 4 Norte 5 Norte 0 1014.2 0.1 89
2019-10-13 01:00:00 21.6 0 Calma 5 Oeste 0 1014.4 1 88
2019-10-13 00:00:00 22 0 Calma 9 Oeste 0 1014.5 1.7 88
2019-10-12 23:00:00 22.7 6 Sudoeste 15 Oeste 0 1014.1 1.8 86
2019-10-12 22:00:00 23.4 6 Noroeste 24 Noroeste 0 1013.4 1.4 80
2019-10-12 21:00:00 23.9 14 Nordeste 28 Este 0 1012.8 0.8 77
2019-10-12 20:00:00 24.7 23 Este 39 Nordeste 0 1012.3 -0.2 72
2019-10-12 19:00:00 26.7 26 Nordeste 37 Nordeste 0 1012 -0.5 63
2019-10-12 18:00:00 28.3 24 Este 33 Este 0 1012 -1.3 58
2019-10-12 17:00:00 29.2 22 Este 33 Este 0 1012.5 -2 56
2019-10-12 16:00:00 29.7 19 Este 32 Este 0 1012.5 -2.8 55
2019-10-12 15:00:00 27.8 12 Sur 22 Sur 0 1013.3 -2.2 63
2019-10-12 14:00:00 28.5 15 Sudeste 30 Sudeste 0 1014.5 -1.1 60
2019-10-12 13:00:00 27.9 15 Este 28 Nordeste 0 1015.3 0.1 58
2019-10-12 12:00:00 26.2 21 Este 30 Este 0 1015.5 1.3 63
2019-10-12 11:00:00 23.5 5 Norte 13 Nordeste 0 1015.6 1.4 68
2019-10-12 10:00:00 21.6 0 Calma 13 Norte 0 1015.2 0.6 76
2019-10-12 09:00:00 19.8 9 Norte 13 Norte 0 1014.2 -0.2 86
2019-10-12 08:00:00 19.9 9 Norte 13 Norte 0 1014.2 -0.1 84
2019-10-12 07:00:00 19.7 6 Norte 9 Norte 0 1014.6 0.5 86
2019-10-12 06:00:00 20.1 3 Noroeste 17 Norte 0 1014.4 -0.5 86
2019-10-12 05:00:00 21.2 7 Norte 17 Norte 0 1014.3 -1.2 81
2019-10-12 04:00:00 21.1 7 Norte 21 Noroeste 0 1014.1 -1.7 84
2019-10-12 03:00:00 21.4 10 Noroeste 17 Noroeste 0 1014.9 -1.2 84
2019-10-12 02:00:00 21.4 7 Noroeste 11 Norte 0 1015.5 -0.7 84
2019-10-12 01:00:00 22 9 Norte 13 Norte 0 1015.8 0.4 83
2019-10-12 00:00:00 21.7 8 Nordeste 15 Este 0 1016.1 1.2 82
2019-10-11 23:00:00 22.7 10 Nordeste 17 Este 0 1016.2 1.6 79
2019-10-11 22:00:00 23.2 13 Este 26 Este 0 1015.4 0.8 77
2019-10-11 21:00:00 23.9 15 Este 22 Este 0 1014.9 -0.3 72
2019-10-11 20:00:00 24.4 13 Nordeste 33 Nordeste 0 1014.6 -0.6 71
2019-10-11 19:00:00 25 23 Nordeste 30 Nordeste 0 1014.6 -- 69
2019-10-11 18:00:00 26.7 14 Este 28 Este 0 1015.2 -0.6 62
2019-10-11 17:00:00 28.4 23 Este 33 Este 0 1015.2 -1.2 53
2019-10-11 16:00:00 -- -- -- -- -- -- -- -- --
2019-10-11 15:00:00 28.1 27 Este 41 Este 0 1015.8 -2.1 52
2019-10-11 14:00:00 29.3 28 Este 39 Este 0 1016.4 -1.7 44
2019-10-11 13:00:00 28.4 24 Este 35 Este 0 1017.4 -0.2 44
2019-10-11 12:00:00 27.7 8 Nordeste 28 Este 0 1017.9 1.1 40
2019-10-11 11:00:00 26 10 Noroeste 26 Noroeste 0 1018.1 1.5 44
2019-10-11 10:00:00 23.6 15 Noroeste 33 Noroeste 0 1017.6 1.2 57
2019-10-11 09:00:00 21.6 22 Noroeste 32 Noroeste 0 1016.8 0.3 66
2019-10-11 08:00:00 21.3 16 Noroeste 32 Noroeste 0 1016.6 0 67
2019-10-11 07:00:00 21.6 20 Noroeste 33 Noroeste 0 1016.4 -0.5 68
2019-10-11 06:00:00 22.1 17 Noroeste 35 Noroeste 0 1016.5 -0.8 66
2019-10-11 05:00:00 21 10 Norte 21 Norte 0 1016.6 -1 74
2019-10-11 04:00:00 21.5 10 Noroeste 15 Noroeste 0 1016.9 -0.9 73
2019-10-11 03:00:00 21.2 3 Norte 24 Nordeste 0 1017.3 -0.4 76
2019-10-11 02:00:00 22 15 Nordeste 26 Nordeste 0 1017.6 0.2 75
2019-10-11 01:00:00 22.4 11 Nordeste 30 Nordeste 0 1017.8 0.7 75
2019-10-11 00:00:00 22.5 15 Nordeste 30 Nordeste 0 1017.7 1.6 76
2019-10-10 23:00:00 23.1 22 Nordeste 33 Nordeste 0 1017.4 1.6 72
2019-10-10 22:00:00 23.4 19 Nordeste 39 Nordeste 0 1017.1 1.3 70
2019-10-10 21:00:00 23.4 28 Este 48 Este 0 1016.1 0.6 72
2019-10-10 20:00:00 23.9 31 Este 46 Este 0 1015.8 0.2 71
2019-10-10 19:00:00 25.8 25 Este 48 Este 0 1015.8 -0.1 62
2019-10-10 18:00:00 27.2 34 Este 48 Este 0 1015.5 -0.4 57
2019-10-10 17:00:00 28.1 34 Este 48 Este 0 1015.6 -1 52
2019-10-10 16:00:00 28.9 32 Este 48 Este 0 1015.9 -1.5 48
2019-10-10 15:00:00 28.9 31 Este 46 Este 0 1015.9 -1.7 48
2019-10-10 14:00:00 28.9 32 Este 45 Este 0 1016.6 -1.1 48
2019-10-10 13:00:00 28.4 33 Este 46 Este 0 1017.4 -0.2 48
2019-10-10 12:00:00 27.4 30 Nordeste 42 Nordeste 0 1017.6 0.8 53
2019-10-10 11:00:00 26.1 28 Nordeste 41 Nordeste 0 1017.7 1.6 58
2019-10-10 10:00:00 23.5 10 Noroeste 21 Norte 0 1017.6 1.9 66
2019-10-10 09:00:00 21.4 10 Nordeste 28 Nordeste 0 1016.8 1.3 73
2019-10-10 08:00:00 20.6 8 Norte 17 Noroeste 0 1016.1 0.8 77
2019-10-10 07:00:00 21.1 8 Norte 21 Noroeste 0 1015.7 0.5 74
2019-10-10 06:00:00 21 10 Norte 17 Norte 0 1015.5 0 71
2019-10-10 05:00:00 20.7 9 Norte 17 Norte 0 1015.3 0 75
2019-10-10 04:00:00 20.5 3 Norte 11 Nordeste 0 1015.2 -0.1 82
2019-10-10 03:00:00 20.8 7 Nordeste 11 Nordeste 0 1015.5 0.2 83
2019-10-10 02:00:00 20.7 9 Norte 13 Nordeste 0 1015.3 0.2 86
2019-10-10 01:00:00 20.8 8 Norte 13 Nordeste 0 1015.3 0.8 86
2019-10-10 00:00:00 20.8 9 Norte 11 Norte 0 1015.3 1.1 83
2019-10-09 23:00:00 21.1 6 Norte 9 Norte 0 1015.1 1.4 86
2019-10-09 22:00:00 21.4 4 Norte 13 Noroeste 0 1014.5 1.1 87
2019-10-09 21:00:00 21.6 0 Calma 8 Sudoeste 0 1014.2 1.1 88
2019-10-09 20:00:00 22.2 6 Sudoeste 9 Sur 0 1013.7 0.4 84
2019-10-09 19:00:00 23.5 8 Sur 13 Sur 0 1013.4 -0.2 78
2019-10-09 18:00:00 24.2 9 Sur 15 Sur 0 1013.1 -0.8 75
2019-10-09 17:00:00 24.8 10 Sur 17 Sudoeste 0 1013.3 -1.1 73
2019-10-09 16:00:00 25.1 13 Sur 17 Sur 0 1013.6 -1.3 71
2019-10-09 15:00:00 24.9 12 Sur 18 Sur 0 1013.9 -1.2 70
2019-10-09 14:00:00 25.1 15 Sur 21 Sur 0 1014.4 -0.9 69
2019-10-09 13:00:00 25.8 14 Sur 18 Sur 0 1014.9 -0.1 61
2019-10-09 12:00:00 26.2 9 Sur 13 Sur 0 1015.1 0.4 56
2019-10-09 11:00:00 24.1 4 Noroeste 15 Noroeste 0 1015.3 1 61
2019-10-09 10:00:00 22.3 9 Noroeste 22 Norte 0 1015 1 65
2019-10-09 09:00:00 19.6 11 Noroeste 13 Noroeste 0 1014.7 0.7 74
2019-10-09 08:00:00 18.3 9 Norte 13 Norte 0 1014.3 0.2 80
2019-10-09 07:00:00 18.5 9 Norte 13 Norte 0 1014 -0.7 78
2019-10-09 06:00:00 19.5 9 Norte 13 Norte 0 1014 -1 72
2019-10-09 05:00:00 19.7 9 Norte 13 Norte 0 1014.1 -1 71
2019-10-09 04:00:00 19.8 10 Norte 13 Norte 0 1014.7 -0.6 70
2019-10-09 03:00:00 20.1 8 Norte 11 Norte 0 1015 -0.6 70
2019-10-09 02:00:00 20.7 8 Norte 15 Nordeste 0 1015.1 -0.3 72
2019-10-09 01:00:00 21.3 11 Nordeste 15 Nordeste 0 1015.3 0 75
2019-10-09 00:00:00 21.4 11 Nordeste 15 Nordeste 0 1015.6 0.5 73
2019-10-08 23:00:00 21.7 11 Nordeste 17 Nordeste 0 1015.4 0.1 70
2019-10-08 22:00:00 21.9 10 Nordeste 15 Nordeste 0 1015.3 0.1 70
2019-10-08 21:00:00 22.5 10 Este 13 Este 0 1015.1 -0.1 64
2019-10-08 20:00:00 23.6 12 Este 17 Este 0 1015.3 -0.1 59
2019-10-08 19:00:00 24.1 10 Sur 21 Sur 0 1015.2 -0.8 70
2019-10-08 18:00:00 25 14 Sudeste 26 Sur 0 1015.2 -0.9 63
2019-10-08 17:00:00 25.8 19 Sudeste 30 Sudeste 0 1015.4 -1.6 58
2019-10-08 16:00:00 26.7 20 Sudeste 33 Este 0 1016 -1.5 54
2019-10-08 15:00:00 28.3 20 Este 30 Este 0 1016.1 -1.5 51
2019-10-08 14:00:00 26.9 21 Sudeste 41 Sudeste 0 1017 -0.8 59
2019-10-08 13:00:00 27.4 17 Sudeste 39 Este 0 1017.5 -0.1 61
2019-10-08 12:00:00 26.8 19 Este 30 Este 0 1017.6 0.6 60
2019-10-08 11:00:00 25.4 18 Este 28 Este 0 1017.8 1.1 67
2019-10-08 10:00:00 22.9 11 Norte 24 Norte 0 1017.6 1.6 70
2019-10-08 09:00:00 21.9 14 Norte 28 Norte 0 1017 1.1 74
2019-10-08 08:00:00 20.8 13 Norte 21 Norte 0 1016.7 1.1 78
2019-10-08 07:00:00 20.8 12 Norte 17 Norte 0 1016 0.7 77
2019-10-08 06:00:00 20.8 12 Norte 15 Norte 0 1015.9 0.6 73
2019-10-08 05:00:00 20.7 5 Norte 13 Norte 0 1015.6 0.2 75
2019-10-08 04:00:00 21.3 8 Norte 18 Norte 0 1015.3 -0.1 70
2019-10-08 03:00:00 21.8 13 Norte 22 Norte 0 1015.3 0 70
2019-10-08 02:00:00 22.4 14 Noroeste 22 Noroeste 0 1015.4 0.5 69
2019-10-08 01:00:00 22.9 9 Norte 24 Nordeste 0 1015.4 1.2 60
2019-10-08 00:00:00 23.8 16 Nordeste 41 Nordeste 0 1015.3 1.9 62
2019-10-07 23:00:00 23.8 28 Nordeste 41 Nordeste 0 1014.9 1.8 63
2019-10-07 22:00:00 24.1 26 Nordeste 35 Nordeste 0 1014.2 1.3 56
2019-10-07 21:00:00 22.4 4 Sudeste 5 Sudeste 0 1013.4 0.6 90
2019-10-07 20:00:00 22.8 0 Calma 9 Sudeste 0 1013.1 0.3 88
2019-10-07 19:00:00 24.3 5 Sur 9 Sur 0 1012.9 -0.2 81
2019-10-07 18:00:00 24.5 7 Sur 15 Sur 0 1012.8 -0.5 80
2019-10-07 17:00:00 24.9 12 Sur 17 Sur 0 1012.8 -1.2 78
2019-10-07 16:00:00 24.9 12 Sur 21 Sudoeste 0 1013.1 -1 77
2019-10-07 15:00:00 24.5 14 Sudoeste 17 Sudoeste 0 1013.3 -1.1 79
2019-10-07 14:00:00 24.3 10 Sur 15 Sudeste 0 1014 -0.4 81
2019-10-07 13:00:00 23.4 7 Sur 13 Sur 0 1014.1 0 82
2019-10-07 12:00:00 23.1 9 Sur 13 Sur 0 1014.4 1 79
2019-10-07 11:00:00 22.1 8 Sur 13 Sur 0 1014.4 1.4 81
2019-10-07 10:00:00 20.2 9 Este 11 Este 0 1014.1 1.1 83
2019-10-07 09:00:00 17.1 4 Nordeste 9 Nordeste 0 1013.4 0.5 100
2019-10-07 08:00:00 17.3 4 Nordeste 8 Nordeste 0 1013 -0.2 99
2019-10-07 07:00:00 18.3 0 Calma 9 Nordeste 0 1013 -0.7 97
2019-10-07 06:00:00 17.5 3 Noroeste 8 Noroeste 0 1012.9 -1.4 93
2019-10-07 05:00:00 18 3 Norte 9 Este 0 1013.2 -1.5 89
2019-10-07 04:00:00 18.2 3 Oeste 8 Noroeste 0 1013.7 -1.4 88
2019-10-07 03:00:00 19.1 3 Norte 11 Norte 0 1014.3 -0.9 90
2019-10-07 02:00:00 19.9 8 Norte 13 Norte 0 1014.7 -0.4 96
2019-10-07 01:00:00 20.6 6 Norte 9 Norte 0 1015.1 0.4 90
2019-10-07 00:00:00 20 5 Nordeste 8 Nordeste 0 1015.2 0.9 86
2019-10-06 23:00:00 20.3 5 Nordeste 9 Nordeste 0 1015.1 1 91
2019-10-06 22:00:00 20.9 0 Calma 8 Norte 0 1014.7 0.3 92
2019-10-06 21:00:00 21.4 4 Sudoeste 9 Sur 0 1014.3 -0.1 92
2019-10-06 20:00:00 22 7 Sur 9 Sur 0 1014.1 -0.5 89
2019-10-06 19:00:00 23.4 8 Sudoeste 13 Sur 0 1014.4 -0.6 83
2019-10-06 18:00:00 23.8 8 Sur 13 Sur 0 1014.4 -1 80
2019-10-06 17:00:00 24 9 Sur 15 Sudoeste 0 1014.6 -1 79
2019-10-06 16:00:00 24 10 Sur 17 Sur 0 1015 -0.7 81
2019-10-06 15:00:00 22.8 12 Sudoeste 17 Sur 0 1015.4 -0.4 85
2019-10-06 14:00:00 23.3 12 Sudoeste 17 Sudoeste 0 1015.6 -0.2 83
2019-10-06 13:00:00 23.1 10 Sur 17 Sur 0 1015.7 0.5 82
2019-10-06 12:00:00 24.3 9 Sur 13 Sur 0 1015.8 1 59
2019-10-06 11:00:00 23.2 6 Sur 13 Oeste 0 1015.8 1.5 67
2019-10-06 10:00:00 21.4 5 Noroeste 11 Noroeste 0 1015.2 1.2 54
2019-10-06 09:00:00 17.6 5 Norte 11 Norte 0 1014.8 0.8 86
2019-10-06 08:00:00 16.8 3 Nordeste 8 Oeste 0 1014.3 0.6 88
2019-10-06 07:00:00 17.6 0 Calma 9 Noroeste 0 1014 0 93
2019-10-06 06:00:00 17.7 2 Noroeste 5 Norte 0 1014 -0.2 93
2019-10-06 05:00:00 18.3 3 Nordeste -- -- 0 1013.7 -0.3 91
2019-10-06 04:00:00 18.8 7 Nordeste 9 Norte 0 1014 -0.1 98
2019-10-06 03:00:00 19.3 8 Noroeste 13 Noroeste 0 1014.2 0.1 98
2019-10-06 02:00:00 20.7 6 Norte 9 Norte 0 1014 0.3 92
2019-10-06 01:00:00 21.3 4 Noroeste 11 Este 0 1014.1 0.8 91
2019-10-06 00:00:00 21.6 6 Nordeste 9 Este 0 1014.1 1.3 92
2019-10-05 23:00:00 21.4 4 Este 9 Este 0 1013.7 1.1 93
2019-10-05 22:00:00 21.4 3 Sur 8 Sur 0 1013.3 1.1 93
2019-10-05 21:00:00 21.6 0 Calma 8 Sudoeste 0 1012.8 0.5 91
2019-10-05 20:00:00 22.2 3 Sur 8 Sur 0 1012.6 0.3 88
2019-10-05 19:00:00 23.6 4 Sur 13 Sur 0 1012.2 -0.3 83
2019-10-05 18:00:00 24.2 10 Sur 13 Sur 0 1012.3 -0.6 79
2019-10-05 17:00:00 24.2 9 Sur 15 Sur 0 1012.3 -1.1 81
2019-10-05 16:00:00 24.2 9 Sur 15 Sur 0 1012.5 -1.2 81
2019-10-05 15:00:00 24.3 10 Sur 17 Sur 0 1012.9 -0.7 80
2019-10-05 14:00:00 23.7 9 Sur 18 Sudoeste 0 1013.4 0 80
2019-10-05 13:00:00 23.4 10 Sur 15 Sur 0 1013.7 0.6 79
2019-10-05 12:00:00 22.4 10 Sur 15 Sur 0 1013.6 1.1 82
2019-10-05 11:00:00 22.7 9 Sur 13 Sur 0 1013.4 1.4 75
2019-10-05 10:00:00 20.7 3 Sur 8 Norte 0 1013.1 1.2 78
2019-10-05 09:00:00 17.6 0 Calma 9 Nordeste 0 1012.5 0.4 86
2019-10-05 08:00:00 16.8 4 Norte 11 Norte 0 1012 0.1 87
2019-10-05 07:00:00 17.5 9 Nordeste 11 Nordeste 0 1011.9 -0.2 92
2019-10-05 06:00:00 17.6 9 Norte 13 Nordeste 0 1012.1 -0.6 95
2019-10-05 05:00:00 17 0 Calma 5 Nordeste 0 1011.9 -0.9 95
2019-10-05 04:00:00 18.1 7 Norte 9 Norte 0 1012.1 -0.8 99
2019-10-05 03:00:00 19.6 6 Norte 11 Nordeste 0 1012.7 -0.6 99
2019-10-05 02:00:00 20.5 8 Nordeste 11 Nordeste 0 1012.8 -0.3 96
2019-10-05 01:00:00 20.5 0 Calma 4 Este 0 1012.9 0 94
2019-10-05 00:00:00 20.9 4 Norte 9 Sudoeste 0 1013.3 0.4 93
2019-10-04 23:00:00 20.6 3 Oeste 5 Oeste 0 1013.1 0.2 94
2019-10-04 22:00:00 21.1 3 Sudoeste 5 Oeste 0 1012.9 0 93
2019-10-04 21:00:00 21.7 0 Calma 5 Sudeste 0 1012.9 0 92
2019-10-04 20:00:00 22.3 5 Sudeste 8 Sur 0 1012.9 -0.3 88
2019-10-04 19:00:00 23.8 5 Sur 11 Sudoeste 0 1012.9 -0.8 82
2019-10-04 18:00:00 24.3 9 Sur 13 Sudoeste 0 1012.9 -1.4 79
2019-10-04 17:00:00 24.7 10 Sur 17 Sur 0 1013.2 -1.9 76
2019-10-04 16:00:00 24.5 11 Sur 18 Sudoeste 0 1013.7 -1.5 77
2019-10-04 15:00:00 24.2 13 Sur 17 Sudoeste 0 1014.3 -1.2 78
2019-10-04 14:00:00 24.5 12 Sur 17 Sudoeste 0 1015.1 -0.3 73
2019-10-04 13:00:00 24.3 11 Sur 17 Sudoeste 0 1015.2 0 67
2019-10-04 12:00:00 24.6 10 Sur 15 Sur 0 1015.5 0.4 62
2019-10-04 11:00:00 24.1 10 Sur 15 Noroeste 0 1015.4 0.9 58
2019-10-04 10:00:00 22.3 6 Noroeste 18 Noroeste 0 1015.2 1 41
2019-10-04 09:00:00 19.7 10 Noroeste 21 Noroeste 0 1015.1 1 46
2019-10-04 08:00:00 18.9 14 Noroeste 21 Norte 0 1014.5 0.3 48
2019-10-04 07:00:00 18.3 7 Noroeste 17 Noroeste 0 1014.2 0 56
2019-10-04 06:00:00 17.8 12 Norte 15 Norte 0 1014.1 -0.4 62
2019-10-04 05:00:00 19 8 Noroeste 17 Noroeste 0 1014.2 -0.7 57
2019-10-04 04:00:00 19.4 10 Noroeste 15 Noroeste 0 1014.2 -1.1 59
2019-10-04 03:00:00 17.9 5 Norte 11 Oeste 0 1014.5 -0.6 74
2019-10-04 02:00:00 18.8 9 Norte 13 Norte 0 1014.9 -0.1 91
2019-10-04 01:00:00 19.3 10 Norte 13 Norte 0 1015.3 0.9 84
2019-10-04 00:00:00 19.7 3 Norte 11 Norte 0 1015.1 0.9 77
2019-10-03 23:00:00 20.4 6 Norte 9 Norte 0 1015 1 84
2019-10-03 22:00:00 21.3 3 Este 9 Noroeste 0 1014.4 0.7 86
2019-10-03 21:00:00 21.7 7 Oeste 13 Sudoeste 0 1014.2 0.3 81
2019-10-03 20:00:00 22.5 7 Sur 17 Sudoeste 0 1014 0.1 82
2019-10-03 19:00:00 24.6 12 Sudoeste 24 Sudoeste 0 1013.7 -0.7 63
2019-10-03 18:00:00 24.7 14 Sudoeste 26 Sudoeste 0 1013.9 -1.2 66
2019-10-03 17:00:00 25.7 17 Sudoeste 22 Sur 0 1013.9 -1.7 65
2019-10-03 16:00:00 25.4 12 Sur 17 Sur 0 1014.4 -1.1 73
2019-10-03 15:00:00 25.1 13 Sudoeste 26 Oeste 0 1015.1 -0.4 68
2019-10-03 14:00:00 25.4 14 Sudoeste 21 Sudoeste 0 1015.6 0.1 61
2019-10-03 13:00:00 26.5 7 Sur 13 Sur 0 1015.5 0.5 42
2019-10-03 12:00:00 27.3 8 Sur 11 Sur 0 1015.5 0.9 39
2019-10-03 11:00:00 26.7 8 Noroeste 26 Noroeste 0 1015.5 1.2 33
2019-10-03 10:00:00 23 21 Noroeste 30 Noroeste 0 1015 1.1 40
2019-10-03 09:00:00 20.7 20 Noroeste 30 Noroeste 0 1014.6 0.8 47
2019-10-03 08:00:00 19.9 15 Norte 24 Norte 0 1014.3 0.6 50
2019-10-03 07:00:00 20.8 5 Norte 22 Noroeste 0 1013.9 0 51
2019-10-03 06:00:00 20.2 14 Noroeste 21 Noroeste 0 1013.8 0.1 56
2019-10-03 05:00:00 20.3 12 Norte 17 Norte 0 1013.7 0 59
2019-10-03 04:00:00 19.6 8 Noroeste 13 Noroeste 0 1013.9 0 65
2019-10-03 03:00:00 21.4 3 Noroeste 17 Nordeste 0 1013.7 0.2 56
2019-10-03 02:00:00 22 4 Nordeste 18 Nordeste 0 1013.7 0.5 54
2019-10-03 01:00:00 22.6 6 Sudeste 28 Nordeste 0 1013.9 0.8 54
2019-10-03 00:00:00 23.8 16 Nordeste 35 Nordeste 0 1013.5 1 48
2019-10-02 23:00:00 24 17 Nordeste 28 Este 0 1013.2 1.3 49
2019-10-02 22:00:00 24.6 17 Nordeste 33 Nordeste 0 1013.1 1.8 49
2019-10-02 21:00:00 24.5 16 Nordeste 24 Este 0 1012.5 1.5 52
2019-10-02 20:00:00 23.2 7 Nordeste 9 Nordeste 0 1011.9 0.7 83
2019-10-02 19:00:00 24.2 6 Sur 18 Sudoeste 0 1011.3 0.1 79
2019-10-02 18:00:00 25.6 15 Sudoeste 22 Sudoeste 0 1011 -0.3 73
2019-10-02 17:00:00 26.3 14 Sudoeste 21 Sudoeste 0 1011.2 -0.5 71
2019-10-02 16:00:00 26.7 14 Sudoeste 18 Sudoeste 0 1011.2 -0.9 69
2019-10-02 15:00:00 25.9 11 Sur 21 Sur 0 1011.3 -0.7 71
2019-10-02 14:00:00 26.6 13 Sudoeste 22 Sudoeste 0 1011.7 -0.4 63
2019-10-02 13:00:00 26.3 17 Sudoeste 30 Sudoeste -- 1012.1 0.6 63
2019-10-02 12:00:00 31.1 12 Este 22 Este 0 1012 1 31
2019-10-02 11:00:00 28.9 12 Noroeste 18 Noroeste 0 1012.1 1.3 32
2019-10-02 10:00:00 24.8 10 Norte 22 Norte 0 1011.5 1.1 36
2019-10-02 09:00:00 22 3 Noroeste 13 Noroeste 0 1011 1.2 49
2019-10-02 08:00:00 20.3 0 Calma 18 Nordeste 0 1010.8 1 49
2019-10-02 07:00:00 22.1 6 Noroeste 17 Norte 0 1010.4 0.5 44
2019-10-02 06:00:00 22 11 Norte 15 Norte 0 1009.8 -0.1 47
2019-10-02 05:00:00 21.3 10 Este 15 Este 0 1009.8 0.2 66
2019-10-02 04:00:00 23.3 6 Oeste 15 Oeste 0 1009.9 0.5 55
2019-10-02 03:00:00 23.6 9 Noroeste 32 Oeste 0 1009.9 1.4 60
2019-10-02 02:00:00 24.1 19 Oeste 28 Oeste 0 1009.6 0.2 64
2019-10-02 01:00:00 28.1 16 Oeste 59 Noroeste 0 1009.4 0.5 38
2019-10-02 00:00:00 29.3 30 Noroeste 50 Noroeste 0 1008.5 -0.1 25
2019-10-01 23:00:00 22.2 9 Este 15 Este 0 1009.4 1 83
2019-10-01 22:00:00 23.3 6 Nordeste 15 Este 0 1008.9 0.7 77
2019-10-01 21:00:00 24.2 7 Este 13 Oeste 0 1008.6 0.6 74
2019-10-01 20:00:00 25.6 8 Oeste 17 Oeste 0 1008.4 -0.3 60
2019-10-01 19:00:00 26.1 9 Sur 21 Sudoeste 0 1008.2 -1 71
2019-10-01 18:00:00 25.9 11 Sur 21 Sudoeste 0 1008 -1.7 72
2019-10-01 17:00:00 26 12 Sur 22 Sur 0 1008.7 -1.7 73
2019-10-01 16:00:00 25.9 15 Sur 28 Sur 0 1009.2 -2 76
2019-10-01 15:00:00 25.7 19 Sur 28 Sur 0 1009.7 -2.2 75
2019-10-01 14:00:00 24.9 11 Sur 17 Sur 0 1010.4 -1.5 79
2019-10-01 13:00:00 24.1 9 Sudeste 15 Sudeste 0 1011.2 0.2 79
2019-10-01 12:00:00 23.7 13 Sur 21 Sur 0 1011.9 1.3 80
2019-10-01 11:00:00 23.3 10 Sudoeste 15 Sudoeste 0 1011.9 1.5 76
2019-10-01 10:00:00 20.8 0 Calma 8 Norte 0 1011 0.4 85
2019-10-01 09:00:00 19.6 4 Nordeste -- -- 0 1010.6 -0.3 91
2019-10-01 08:00:00 18.4 0 Calma 11 Noroeste 0 1010.4 -0.6 91
2019-10-01 07:00:00 19.3 9 Norte 13 Noroeste 0 1010.6 -1.1 90
2019-10-01 06:00:00 19.4 7 Noroeste 13 Noroeste 0 1010.9 -1.6 95
2019-10-01 05:00:00 19.8 10 Noroeste 13 Noroeste 0 1011 -1.6 96
2019-10-01 04:00:00 20.5 5 Oeste 8 Noroeste 0 1011.7 -1.3 95
2019-10-01 03:00:00 20.7 0 Calma 8 Sudoeste 0 1012.5 -0.5 96
2019-10-01 02:00:00 20.7 5 Norte 17 Nordeste 0 1012.6 -0.3 96
2019-10-01 01:00:00 22.3 10 Nordeste 13 Nordeste 0 1013 0.2 90
2019-10-01 00:00:00 22.4 5 Este 9 Este 0 1013 0.6 91
2019-09-30 23:00:00 22 6 Este 9 Sudeste 0 1012.9 0.5 93
2019-09-30 22:00:00 21.9 5 Sur 8 Sudeste 0 1012.8 0.3 92
2019-09-30 21:00:00 22.4 6 Norte 13 Sudoeste 0 1012.4 -0.2 89
2019-09-30 20:00:00 22.7 9 Sudoeste 15 Sudoeste 0 1012.4 -0.2 89
2019-09-30 19:00:00 23.1 6 Sudoeste 17 Sudoeste 0 1012.5 -0.5 86
2019-09-30 18:00:00 24.5 12 Sudoeste 18 Sur 0 1012.6 -0.7 79
2019-09-30 17:00:00 25.2 14 Sur 18 Sur 0 1012.6 -1.7 76
2019-09-30 16:00:00 25.5 13 Sur 22 Sudoeste 0 1013 -1.9 75
2019-09-30 15:00:00 25.5 15 Sudoeste 21 Sudoeste 0 1013.3 -2 73
2019-09-30 14:00:00 25.4 12 Sur 18 Sur 0 1014.3 -1.1 72
2019-09-30 13:00:00 25 12 Sur 17 Sur 0 1014.9 -0.1 73
2019-09-30 12:00:00 24.5 13 Sudoeste 21 Sur 0 1015.3 1 73
2019-09-30 11:00:00 23.1 7 Sudoeste 13 Sudoeste 0 1015.4 1.5 79
2019-09-30 10:00:00 21.4 8 Norte 21 Noroeste 0 1015 1.4 87
2019-09-30 09:00:00 20.7 5 Norte 9 Norte 0 1014.3 0.7 90
2019-09-30 08:00:00 19.7 5 Norte 11 Norte 0 1013.9 0.2 89
2019-09-30 07:00:00 20.2 6 Norte 11 Norte 0 1013.6 -0.5 88
2019-09-30 06:00:00 20.3 6 Noroeste 9 Noroeste 0 1013.6 -0.9 89
2019-09-30 05:00:00 19.7 5 Norte 11 Norte 0 1013.7 -0.9 92
2019-09-30 04:00:00 20 9 Norte 11 Norte 0 1014.1 -0.8 97
2019-09-30 03:00:00 21.1 9 Norte 15 Norte 0 1014.5 -0.4 94
2019-09-30 02:00:00 20.7 6 Este 9 Nordeste 0 1014.6 -0.3 93
2019-09-30 01:00:00 21.5 0 Calma 11 Oeste 0 1014.9 0.3 91
2019-09-30 00:00:00 22.1 10 Oeste 17 Oeste 0 1014.9 0.6 89
2019-09-29 23:00:00 22.5 11 Oeste 15 Sudoeste 0 1014.9 1 87
2019-09-29 22:00:00 22.8 10 Oeste 13 Oeste 0 1014.6 0.6 88
2019-09-29 21:00:00 23.2 7 Sudoeste 9 Oeste 0 1014.3 0.1 86
2019-09-29 20:00:00 24.1 8 Sudoeste 9 Sudoeste 0 1013.9 -1 82
2019-09-29 19:00:00 25.9 6 Sudoeste 9 Sudoeste 0 1014 -1 70
2019-09-29 18:00:00 25.8 6 Sudoeste 18 Sudoeste 0 1014.2 -1.3 76
2019-09-29 17:00:00 26.1 15 Sudoeste 21 Sudoeste 0 1014.9 -1.6 73
2019-09-29 16:00:00 26.4 14 Sur 18 Sur 0 1015 -2 75
2019-09-29 15:00:00 26.5 14 Sur 18 Sur 0 1015.5 -1.7 73
2019-09-29 14:00:00 26.4 13 Sur 21 Sudoeste 0 1016.5 -0.5 73
2019-09-29 13:00:00 25.9 17 Sudoeste 22 Sudoeste 0 1017 0.5 75
2019-09-29 12:00:00 25.5 14 Sudoeste 21 Sudoeste 0 1017.2 1.3 77
2019-09-29 11:00:00 24.9 10 Sur 15 Sur 0 1017 1.8 78
2019-09-29 10:00:00 23.6 3 Oeste 13 Noroeste 0 1016.5 1.5 73
2019-09-29 09:00:00 20.6 3 Nordeste 9 Noroeste 0 1015.9 0.7 89
2019-09-29 08:00:00 20 3 Noroeste 9 Norte 0 1015.2 -0.3 90
2019-09-29 07:00:00 20.2 8 Nordeste 15 Norte 0 1015 -1.2 90
2019-09-29 06:00:00 21 12 Noroeste 17 Noroeste 0 1015.2 -1.4 89
2019-09-29 05:00:00 20.9 11 Norte 13 Norte 0 1015.5 -1.2 90
2019-09-29 04:00:00 21.5 9 Norte 13 Norte 0 1016.2 -0.6 88
2019-09-29 03:00:00 21.9 8 Nordeste 11 Nordeste 0 1016.6 -0.6 87
2019-09-29 02:00:00 22.1 6 Norte 11 Nordeste 0 1016.7 -0.1 86
2019-09-29 01:00:00 22.3 9 Nordeste 11 Nordeste 0 1016.8 0.5 88
2019-09-29 00:00:00 22.2 6 Nordeste 11 Este 0 1017.2 1.6 86
2019-09-28 23:00:00 23 7 Nordeste 13 Este 0 1016.8 1.4 83
2019-09-28 22:00:00 23.5 11 Este 13 Este 0 1016.3 0.8 81
2019-09-28 21:00:00 23.6 5 Noroeste 11 Noroeste 0 1015.6 0.2 86
2019-09-28 20:00:00 24.3 9 Oeste 17 Sudoeste 0 1015.4 -0.5 84
2019-09-28 19:00:00 25.8 13 Sudoeste 22 Sudoeste 0 1015.5 -0.7 78
2019-09-28 18:00:00 26.2 16 Sudoeste 22 Sudoeste 0 1015.4 -1 78
2019-09-28 17:00:00 26.4 12 Sudoeste 17 Sudoeste 0 1015.9 -1.1 76
2019-09-28 16:00:00 26.4 13 Sur 21 Sur 0 1016.2 -1.5 74
2019-09-28 15:00:00 26.1 14 Sur 18 Sur 0 1016.4 -1.4 75
2019-09-28 14:00:00 25.9 11 Sur 17 Sur 0 1017 -0.6 75
2019-09-28 13:00:00 25.1 11 Sudoeste 17 Sur 0 1017.7 0.7 77
2019-09-28 12:00:00 25.1 13 Sudoeste 18 Sur 0 1017.8 1.5 78
2019-09-28 11:00:00 24.8 10 Sur 13 Sur 0 1017.6 2 75
2019-09-28 10:00:00 24 0 Calma 5 Este 0 1017 2 74
2019-09-28 09:00:00 21.1 0 Calma 8 Oeste 0 1016.3 1.6 87
2019-09-28 08:00:00 19.9 6 Noroeste 13 Norte 0 1015.6 1 91
2019-09-28 07:00:00 20 0 Calma 9 Norte 0 1015 0.1 91
2019-09-28 06:00:00 20.1 0 Calma 5 Norte 0 1014.7 -0.8 90
2019-09-28 05:00:00 20.5 5 Norte 11 Este 0 1014.6 -1.5 89
2019-09-28 04:00:00 20.5 5 Sudeste 13 Norte 0 1014.9 -1.6 90
2019-09-28 03:00:00 21 4 Norte 8 Norte 0 1015.5 -1.1 91
2019-09-28 02:00:00 21.4 0 Calma 9 Norte 0 1016.1 -0.3 93
2019-09-28 01:00:00 21.6 0 Calma 4 Norte 0 1016.5 0.8 90
2019-09-28 00:00:00 22 3 Noroeste 11 Sudoeste 0 1016.6 1.6 90
2019-09-27 23:00:00 22.3 9 Oeste 13 Sudoeste 0 1016.4 1.9 89
2019-09-27 22:00:00 22.9 9 Sudoeste 13 Sudoeste 0 1015.7 1.3 89
2019-09-27 21:00:00 23.1 7 Sudoeste 13 Sudoeste 0 1015 0.7 88
2019-09-27 20:00:00 23.5 9 Sudoeste 17 Sudoeste 0 1014.5 0.1 86
2019-09-27 19:00:00 24.6 12 Sudoeste 18 Sur 0 1014.4 -0.4 81
2019-09-27 18:00:00 25 14 Sudoeste 18 Sur 0 1014.3 -1.4 77
2019-09-27 17:00:00 25.4 15 Sudoeste 21 Sudoeste 0 1014.4 -2 75
2019-09-27 16:00:00 25.7 13 Sudoeste 21 Sudoeste 0 1014.8 -2 75
2019-09-27 15:00:00 25.9 14 Sur 18 Sudoeste 0 1015.7 -1.4 74
2019-09-27 14:00:00 25.6 13 Sur 21 Sudoeste 0 1016.4 -0.5 75
2019-09-27 13:00:00 25.2 13 Sudoeste 17 Sur 0 1016.8 0.1 76
2019-09-27 12:00:00 24.8 14 Sudoeste 18 Sudoeste 0 1017.1 0.9 77
2019-09-27 11:00:00 24.4 4 Sudoeste 11 Sur 0 1016.9 1.2 78
2019-09-27 10:00:00 23 3 Oeste 17 Norte 0 1016.7 1.2 82
2019-09-27 09:00:00 21.3 4 Norte 21 Norte 0 1016.2 0.8 90
2019-09-27 08:00:00 19.9 6 Noroeste 9 Noroeste 0 1015.7 0 94
2019-09-27 07:00:00 20.2 3 Noroeste 13 Noroeste 0 1015.5 -0.4 92
2019-09-27 06:00:00 20.5 9 Noroeste 11 Norte 0 1015.4 -1 93
2019-09-27 05:00:00 21 6 Noroeste -- -- 0 1015.7 -0.9 92
2019-09-27 04:00:00 21.6 8 Norte 13 Norte 0 1015.9 -1 90
2019-09-27 03:00:00 21.9 6 Norte 9 Norte 0 1016.4 -0.6 89
2019-09-27 02:00:00 22.2 6 Norte 18 Norte 0 1016.6 -0.1 88
2019-09-27 01:00:00 22.2 6 Nordeste 8 Nordeste 0 1016.9 0.6 88
2019-09-27 00:00:00 23 6 Norte 9 Norte 0 1017 1.5 86
2019-09-26 23:00:00 23.2 5 Norte 18 Noroeste 0 1016.7 1.6 88
2019-09-26 22:00:00 23.2 5 Noroeste 13 Oeste 0 1016.3 1.3 89
2019-09-26 21:00:00 23.5 9 Oeste 13 Oeste 0 1015.5 0.6 88
2019-09-26 20:00:00 24.2 11 Sudoeste 18 Oeste 0 1015.1 0.1 86
2019-09-26 19:00:00 25.2 13 Sudoeste 21 Sur 0 1015 -0.3 81
2019-09-26 18:00:00 25.9 15 Sudoeste 22 Sudoeste 0 1014.9 -0.6 78
2019-09-26 17:00:00 27 15 Sur 22 Sur 0 1015 -0.9 74
2019-09-26 16:00:00 27.9 12 Sur 21 Sudoeste 0 1015.3 -1 68
2019-09-26 15:00:00 28 14 Sur 24 Sur 0 1015.5 -1.2 70
2019-09-26 14:00:00 28.6 15 Sur 28 Sur 0 1015.9 -0.6 67
2019-09-26 13:00:00 30.1 18 Este 28 Este 0 1016.3 0.1 46
2019-09-26 12:00:00 28.5 15 Este 24 Este 0 1016.7 1.1 51
2019-09-26 11:00:00 26.8 12 Nordeste 22 Este 0 1016.5 1.5 58
2019-09-26 10:00:00 25 9 Este 15 Este 0 1016.2 1.9 58
2019-09-26 09:00:00 21.8 10 Noroeste 22 Norte 0 1015.6 1.3 67
2019-09-26 08:00:00 21.9 14 Norte 24 Noroeste 0 1015 0.8 63
2019-09-26 07:00:00 21.8 15 Norte 26 Norte 0 1014.3 0.3 66
2019-09-26 06:00:00 22.3 6 Nordeste 17 Nordeste 0 1014.3 0 67
2019-09-26 05:00:00 21 6 Nordeste 13 Nordeste 0 1014.2 -0.1 82
2019-09-26 04:00:00 21.4 10 Norte 15 Norte 0 1014 -0.2 82
2019-09-26 03:00:00 21.2 7 Norte 9 Norte 0 1014.3 0.1 83
2019-09-26 02:00:00 21.4 8 Norte 9 Norte 0 1014.3 0.5 85
2019-09-26 01:00:00 21.9 6 Norte 8 Norte 0 1014.2 0.9 87
2019-09-26 00:00:00 22.2 2 Nordeste -- -- 0 1014.2 1.8 89
2019-09-25 23:00:00 22.8 0 Calma 5 Este 0 1013.8 2 87
2019-09-25 22:00:00 22.8 0 Calma 8 Sudeste 0 1013.3 1.6 88
2019-09-25 21:00:00 23.2 5 Sudeste 9 Sur 0 1012.4 0.8 87
2019-09-25 20:00:00 24.3 8 Sur 13 Sur 0 1011.8 0.1 81
2019-09-25 19:00:00 25.6 11 Sur 15 Sudoeste 0 1011.7 -0.3 75
2019-09-25 18:00:00 25.7 9 Sur 15 Sur 0 1011.6 -1 75
2019-09-25 17:00:00 26 8 Sur 17 Sur 0 1011.7 -1.4 73
2019-09-25 16:00:00 26.2 10 Sur 17 Sudoeste 0 1012 -1.4 74
2019-09-25 15:00:00 25.5 12 Sur 18 Sur 0 1012.6 -1.1 77
2019-09-25 14:00:00 25.4 12 Sur 18 Sur 0 1013.1 -0.5 76
2019-09-25 13:00:00 25.4 12 Sudoeste 17 Sudoeste 0 1013.4 0.3 74
2019-09-25 12:00:00 24.9 10 Sur 13 Sudoeste 0 1013.7 1 74
2019-09-25 11:00:00 23.8 8 Sur 13 Sur 0 1013.6 1.2 77
2019-09-25 10:00:00 23 0 Calma 13 Norte 0 1013.1 0.7 79
2019-09-25 09:00:00 20.1 5 Norte 9 Norte 0 1012.7 0.4 85
2019-09-25 08:00:00 18.7 8 Norte 11 Norte 0 1012.4 0 88
2019-09-25 07:00:00 18.7 6 Norte 9 Noroeste 0 1012.4 -0.3 88
2019-09-25 06:00:00 19.3 8 Norte 11 Nordeste 0 1012.3 -0.7 88
2019-09-25 05:00:00 19.4 7 Nordeste 11 Nordeste 0 1012.4 -0.7 88
2019-09-25 04:00:00 19.5 6 Nordeste 9 Nordeste 0 1012.7 -0.8 88
2019-09-25 03:00:00 19.9 4 Nordeste 5 Nordeste 0 1013 -0.7 88
2019-09-25 02:00:00 20.3 0 Calma 11 Oeste 0 1013.1 -0.7 86
2019-09-25 01:00:00 21.3 3 Sudoeste 15 Sudoeste 0 1013.5 -0.2 84
2019-09-25 00:00:00 21.6 11 Oeste 22 Sudoeste 0 1013.7 0.3 81
2019-09-24 23:00:00 22.1 17 Sudoeste 24 Oeste 0 1013.8 0.2 75
2019-09-24 22:00:00 22.5 12 Sudoeste 15 Sudoeste 0 1013.7 0 71
2019-09-24 21:00:00 23 7 Sudoeste 15 Sudoeste 0 1013.4 -0.6 70
2019-09-24 20:00:00 23.7 12 Sudoeste 17 Sur 0 1013.6 -0.8 75
2019-09-24 19:00:00 24.7 11 Sudoeste 21 Sur 0 1013.7 -1.2 68
2019-09-24 18:00:00 25.4 16 Sur 26 Sudoeste 0 1014 -1.4 61
2019-09-24 17:00:00 25.8 19 Sur 26 Sur 0 1014.4 -1.7 63
2019-09-24 16:00:00 26.5 21 Sur 30 Sur 0 1014.9 -1.9 57
2019-09-24 15:00:00 26.7 21 Sur 30 Sur 0 1015.4 -1.6 57
2019-09-24 14:00:00 26.9 17 Sur 24 Sur 0 1016.1 -0.8 60
2019-09-24 13:00:00 25.7 12 Sur 18 Sudoeste 0 1016.8 0.2 63
2019-09-24 12:00:00 25.3 13 Sur 18 Sur 0 1017 0.8 65
2019-09-24 11:00:00 25.3 10 Sur 13 Sur 0 1016.9 0.9 56
2019-09-24 10:00:00 23.6 8 Noroeste 17 Oeste 0 1016.6 0.4 61
2019-09-24 09:00:00 21.3 11 Noroeste 17 Noroeste 0 1016.2 0.2 66
2019-09-24 08:00:00 20 9 Noroeste 17 Noroeste 0 1016 0 70
2019-09-24 07:00:00 20.3 12 Noroeste 15 Noroeste 0 1016.2 -0.2 73
2019-09-24 06:00:00 20.7 11 Noroeste 17 Noroeste 0 1016 -0.9 71
2019-09-24 05:00:00 20.8 6 Norte 11 Norte 0 1016 -1.3 68
2019-09-24 04:00:00 20.7 6 Norte 8 Norte 0 1016.4 -1.2 69
2019-09-24 03:00:00 20.7 0 Calma 9 Norte 0 1016.9 -0.8 73
2019-09-24 02:00:00 21.5 2 Norte 8 Norte 0 1017.3 -0.4 71
2019-09-24 01:00:00 21.8 0 Calma 8 Norte 0 1017.6 0.3 72
2019-09-24 00:00:00 22.6 0 Calma 8 Norte 0 1017.7 0.9 71
2019-09-23 23:00:00 23.2 0 Calma 4 Norte 0 1017.7 1.4 71
2019-09-23 22:00:00 23.4 0 Calma 5 Sudeste 0 1017.3 1.1 63
2019-09-23 21:00:00 23.7 0 Calma 2 Sur 0 1016.8 0.8 63
2019-09-23 20:00:00 24.2 0 Calma 8 Sudoeste 0 1016.3 0.2 61
2019-09-23 19:00:00 25.1 3 Sur 11 Sudoeste 0 1016.2 0.1 66
2019-09-23 18:00:00 25.8 8 Sur 15 Sur 0 1016 -0.3 64
2019-09-23 17:00:00 26.3 11 Sudoeste 18 Sudoeste 0 1016.1 -0.6 67
2019-09-23 16:00:00 26.2 14 Sur 22 Sur 0 1016.1 -1.2 66
2019-09-23 15:00:00 26.9 17 Sur 24 Sur 0 1016.3 -1.3 64
2019-09-23 14:00:00 26.6 15 Sur 21 Sur 0 1016.7 -0.4 68
2019-09-23 13:00:00 25.9 14 Sur 21 Sur 0 1017.3 0.5 74
2019-09-23 12:00:00 25.9 13 Sur 26 Este 0 1017.6 1.6 76
2019-09-23 11:00:00 26.8 16 Este 26 Este 0 1017.1 1.7 61
2019-09-23 10:00:00 24.7 6 Noroeste 22 Norte 0 1016.8 2 63
2019-09-23 09:00:00 22.1 12 Norte 18 Noroeste 0 1016 1.8 72
2019-09-23 08:00:00 20.8 9 Norte 17 Norte 0 1015.4 1.6 87
2019-09-23 07:00:00 21 12 Nordeste 17 Norte 0 1014.8 1.3 91
2019-09-23 06:00:00 21.2 12 Nordeste 17 Nordeste 0 1014.2 0.7 93
2019-09-23 05:00:00 20.9 13 Nordeste 18 Este 0 1013.8 0.3 92
2019-09-23 04:00:00 21.3 9 Nordeste 13 Nordeste 0 1013.5 0.2 90
2019-09-23 03:00:00 21.2 8 Nordeste 11 Nordeste 0 1013.5 0.6 90
2019-09-23 02:00:00 21.6 8 Nordeste 11 Nordeste 0 1013.5 1.1 88
2019-09-23 01:00:00 22.3 5 Noroeste 21 Oeste 0 1013.3 1.6 85
2019-09-23 00:00:00 22.9 8 Sudoeste 21 Oeste 0 1012.9 2.3 81
2019-09-22 23:00:00 24 8 Sudoeste 18 Sudoeste 0 1012.4 2.1 76
2019-09-22 22:00:00 24.7 5 Oeste 21 Norte 0 1011.7 1.7 73
2019-09-22 21:00:00 25.8 7 Sudoeste 35 Oeste 0 1010.6 0.7 68
2019-09-22 20:00:00 26.4 21 Sudoeste 41 Sudoeste 0 1010.3 0.4 69
2019-09-22 19:00:00 26.1 29 Sudoeste 54 Sudoeste 0 1010 -0.2 69
2019-09-22 18:00:00 27.2 37 Sudoeste 52 Sudoeste 0 1009.9 -0.6 61
2019-09-22 17:00:00 27.4 39 Sudoeste 54 Sudoeste 0 1009.9 -1 63
2019-09-22 16:00:00 26.9 29 Sudoeste 45 Sudoeste 0 1010.2 -1 70
2019-09-22 15:00:00 26.9 35 Sudoeste 50 Sudoeste 0 1010.5 -0.9 67
2019-09-22 14:00:00 26.6 35 Sudoeste 46 Sudoeste 0 1010.9 -0.7 72
2019-09-22 13:00:00 27.7 32 Sudoeste 42 Sudoeste 0 1011.2 -0.3 62
2019-09-22 12:00:00 27.6 23 Sudoeste 35 Sudoeste 0 1011.4 0.1 58
2019-09-22 11:00:00 26.5 9 Oeste 21 Noroeste 0 1011.6 0.8 63
2019-09-22 10:00:00 23.2 14 Noroeste 22 Noroeste 0 1011.5 0.9 82
2019-09-22 09:00:00 22.4 4 Noroeste 21 Oeste 0 1011.3 1.2 83
2019-09-22 08:00:00 21.9 5 Oeste 21 Oeste 0 1010.8 0.5 85
2019-09-22 07:00:00 22.6 18 Sudoeste 32 Sudoeste 0 1010.6 0.2 83
2019-09-22 06:00:00 22.7 23 Sudoeste 32 Sudoeste 0 1010.1 -0.6 80
2019-09-22 05:00:00 23 24 Sur 32 Sudoeste 0 1010.3 -0.7 84
2019-09-22 04:00:00 23 17 Sudoeste 30 Sudoeste 0 1010.4 -0.5 85
2019-09-22 03:00:00 23.3 15 Sudoeste 26 Sudoeste 0 1010.7 -0.6 85
2019-09-22 02:00:00 23.5 11 Sudoeste 28 Sudoeste 0 1011 0 87
2019-09-22 01:00:00 23.8 18 Sudoeste 28 Sudoeste 0 1010.9 0.1 86
2019-09-22 00:00:00 24 17 Sudoeste 24 Sudoeste 0 1011.3 1 84
2019-09-21 23:00:00 24.1 13 Sudoeste 24 Sudoeste 0 1011 0.9 85
2019-09-21 22:00:00 24.3 18 Sudoeste 26 Sudoeste 0 1010.8 0.7 85
2019-09-21 21:00:00 24.5 13 Sudoeste 21 Sudoeste 0 1010.3 0.1 86
2019-09-21 20:00:00 24.7 15 Sudoeste 26 Sudoeste 0 1010.1 -0.3 87
2019-09-21 19:00:00 25.5 19 Sudoeste 32 Sudoeste 0 1010.1 -0.6 82
2019-09-21 18:00:00 27 17 Sur 24 Sur 0 1010.2 -0.4 74
2019-09-21 17:00:00 26.1 14 Sur 24 Sudoeste 0 1010.4 -0.9 75
2019-09-21 16:00:00 27.4 17 Sur 24 Sudoeste 0 1010.7 -1.2 70
2019-09-21 15:00:00 27 16 Sudoeste 24 Sudoeste 0 1010.6 -1.4 71
2019-09-21 14:00:00 26.9 17 Sudoeste 22 Sudoeste 0 1011.3 -0.7 74
2019-09-21 13:00:00 26.9 13 Sur 18 Sudoeste 0 1011.9 0.2 71
2019-09-21 12:00:00 26.4 9 Sur 13 Sur 0 1012 0.8 69
2019-09-21 11:00:00 26.1 6 Sur 11 Sur 0 1012 1.4 68
2019-09-21 10:00:00 24.1 0 Calma 8 Nordeste 0 1011.7 1.8 76
2019-09-21 09:00:00 22.7 4 Norte 15 Norte 0 1011.2 1.5 81
2019-09-21 08:00:00 22.7 9 Norte 18 Noroeste 0 1010.6 0.6 81
2019-09-21 07:00:00 23.1 13 Noroeste 21 Noroeste 0 1009.9 -0.2 80
2019-09-21 06:00:00 23.5 13 Noroeste 22 Noroeste 0 1009.7 -0.9 79
2019-09-21 05:00:00 23.4 2 Sur 9 Sudoeste 0 1010 -0.7 80
2019-09-21 04:00:00 23.4 7 Este 18 Norte 0 1010.1 -1.4 79
2019-09-21 03:00:00 24.5 13 Noroeste 26 Noroeste 0 1010.6 -2.1 74
2019-09-21 02:00:00 24.5 10 Noroeste 18 Nordeste 0 1010.7 -1.4 74
2019-09-21 01:00:00 24.7 13 Nordeste 18 Nordeste 0 1011.5 -0.1 74
2019-09-21 00:00:00 24.8 10 Este 21 Este 0 1012.7 2.2 76
2019-09-20 23:00:00 25.1 17 Este 32 Este 0 1012.1 1.1 75
2019-09-20 22:00:00 25.7 18 Este 39 Nordeste 0 1011.6 0.9 71
2019-09-20 21:00:00 26 31 Nordeste 48 Este 0 1010.5 0 67
2019-09-20 20:00:00 26.1 25 Nordeste 46 Este 0 1011 0.5 68
2019-09-20 19:00:00 27.1 31 Este 46 Este 0 1010.7 -0.3 63
2019-09-20 18:00:00 28.4 30 Este 41 Este 0 1010.5 -1.3 59
2019-09-20 17:00:00 28.9 31 Este 42 Este 0 1010.5 -2 59
2019-09-20 16:00:00 29.4 27 Este 46 Nordeste 0 1011 -2.2 56
2019-09-20 15:00:00 28.7 35 Nordeste 46 Este 0 1011.8 -2 57
2019-09-20 14:00:00 28.6 27 Este 39 Este 0 1012.5 -0.9 60
2019-09-20 13:00:00 28.2 21 Nordeste 32 Este 0 1013.2 0.1 59
2019-09-20 12:00:00 27.2 22 Este 33 Nordeste 0 1013.8 2 61
2019-09-20 11:00:00 26.9 14 Nordeste 32 Este 0 1013.4 2 59
2019-09-20 10:00:00 24.9 14 Sudeste 22 Sudeste 0 1013.1 1.7 69
2019-09-20 09:00:00 23.5 4 Noroeste 13 Noroeste 0 1011.8 -0.5 77
2019-09-20 08:00:00 22.9 3 Este 21 Noroeste 0 1011.4 -2 79
2019-09-20 07:00:00 23.5 15 Noroeste 26 Noroeste 0 1011.4 -3.1 77
2019-09-20 06:00:00 23 10 Norte 18 Noroeste 0 1012.3 -2.2 83
2019-09-20 05:00:00 23.3 13 Norte 18 Norte 0 1013.4 -0.6 81
2019-09-20 04:00:00 23.3 8 Nordeste 13 Nordeste 0 1014.5 0.5 84
2019-09-20 03:00:00 23.2 9 Nordeste 13 Nordeste 0 1014.5 0.7 85
2019-09-20 02:00:00 23.2 8 Nordeste 13 Nordeste 0 1014 0.1 86
2019-09-20 01:00:00 23.4 8 Este 22 Este 0 1014 0.2 85
2019-09-20 00:00:00 23.7 12 Este 17 Este 0 1013.8 0.4 87
2019-09-19 23:00:00 24.1 9 Nordeste 22 Norte 0 1013.9 1.1 82
2019-09-19 22:00:00 24.2 5 Norte 8 Norte 0 1013.8 1.1 83
2019-09-19 21:00:00 24.2 3 Sudoeste 5 Sur 0 1013.4 0.7 82
2019-09-19 20:00:00 24.8 4 Sur 9 Sur 0 1012.8 0 79
2019-09-19 19:00:00 25.8 7 Sur 15 Sur 0 1012.7 -0.4 75
2019-09-19 18:00:00 26.4 11 Sur 17 Sur 0 1012.7 -0.8 74
2019-09-19 17:00:00 26.6 11 Sur 17 Sur 0 1012.8 -1.1 73
2019-09-19 16:00:00 26.4 11 Sur 18 Sur 0 1013.1 -1.3 74
2019-09-19 15:00:00 26.5 12 Sudoeste 21 Sur 0 1013.5 -1.1 74
2019-09-19 14:00:00 26.3 13 Sudoeste 22 Sudoeste 0 1013.9 -0.6 75
2019-09-19 13:00:00 26.3 16 Sur 22 Sur 0 1014.4 0.3 75
2019-09-19 12:00:00 26 13 Sur 17 Sudoeste 0 1014.6 1 75
2019-09-19 11:00:00 25.7 8 Sur 15 Sur 0 1014.5 1.4 75
2019-09-19 10:00:00 25.1 4 Sudeste 11 Sudeste 0 1014.1 1.7 75
2019-09-19 09:00:00 22.3 10 Nordeste 13 Este 0 1013.6 1.3 80
2019-09-19 08:00:00 21.2 6 Noroeste 13 Noroeste 0 1013.1 0.6 89
2019-09-19 07:00:00 20.7 6 Norte 17 Nordeste 0 1012.4 -0.7 87
2019-09-19 06:00:00 22.2 11 Norte 17 Norte 0 1012.3 -1.3 84
2019-09-19 05:00:00 21.3 0 Calma 5 Noroeste 0 1012.5 -1.3 90
2019-09-19 04:00:00 21.9 3 Nordeste 9 Norte 0 1013.1 -0.7 92
2019-09-19 03:00:00 22.3 3 Norte 8 Nordeste 0 1013.6 -0.3 91
2019-09-19 02:00:00 22.5 5 Nordeste 8 Nordeste 0 1013.8 0.3 90
2019-09-19 01:00:00 22.9 6 Nordeste 9 Nordeste 0 1013.8 0.6 89
2019-09-19 00:00:00 23 4 Nordeste 8 Nordeste 0 1013.9 1.4 87
2019-09-18 23:00:00 23.6 5 Sudoeste 15 Sudoeste 0 1013.5 1.4 84
2019-09-18 22:00:00 24.1 10 Sudoeste 15 Oeste 0 1013.2 1.5 83
2019-09-18 21:00:00 24.2 8 Sudoeste 21 Sudoeste 0 1012.5 0.7 85
2019-09-18 20:00:00 25.1 15 Sudoeste 22 Sudoeste 0 1012.1 0.3 82
2019-09-18 19:00:00 26.4 18 Sudoeste 28 Sur 0 1011.7 -0.5 75
2019-09-18 18:00:00 27.2 22 Sudoeste 32 Sudoeste 0 1011.8 -0.6 73
2019-09-18 17:00:00 27.6 22 Sudoeste 33 Sudoeste 0 1011.8 -1 70
2019-09-18 16:00:00 27.9 24 Sudoeste 30 Sudoeste 0 1012.2 -1 68
2019-09-18 15:00:00 27.9 23 Sudoeste 32 Sudoeste 0 1012.4 -0.9 68
2019-09-18 14:00:00 27.5 24 Sudoeste 32 Sudoeste 0 1012.8 -0.3 68
2019-09-18 13:00:00 27.5 18 Sudoeste 22 Sur 0 1013.2 0.4 70
2019-09-18 12:00:00 26.4 13 Sur 17 Sur 0 1013.3 0.6 73
2019-09-18 11:00:00 26.5 10 Sur 13 Sur 0 1013.1 1.2 65
2019-09-18 10:00:00 24.8 6 Oeste 15 Oeste 0 1012.8 1.3 69
2019-09-18 09:00:00 21.9 5 Norte 11 Norte 0 1012.7 1.7 84
2019-09-18 08:00:00 21.5 12 Norte 17 Norte 0 1011.9 0.5 83
2019-09-18 07:00:00 21.5 11 Noroeste 18 Noroeste 0 1011.5 -0.6 84
2019-09-18 06:00:00 21.8 10 Noroeste 13 Noroeste 0 1011 -1.9 85
2019-09-18 05:00:00 21.9 9 Norte 11 Noroeste 0 1011.4 -1.2 87
2019-09-18 04:00:00 22.6 9 Norte 11 Norte 0 1012.1 -0.2 89
2019-09-18 03:00:00 23.6 6 Este 17 Sur 0 1012.9 0.6 86
2019-09-18 02:00:00 23.6 9 Oeste 13 Sudoeste 0 1012.6 0 84
2019-09-18 01:00:00 24.1 7 Norte 13 Norte 0 1012.3 -0.2 77
2019-09-18 00:00:00 24.3 5 Norte 15 Norte 0 1012.3 0.4 79
2019-09-17 23:00:00 23.9 4 Nordeste 18 Nordeste 0 1012.6 1.2 82
2019-09-17 22:00:00 24.7 4 Norte 9 Oeste 0 1012.5 1.3 85
2019-09-17 21:00:00 24.9 5 Oeste 15 Sudoeste 0 1011.9 0.4 85